Aeroporto :
LOGIN :

Iscrizione | Disclaimer

   EN    FR    IT 

 










Sommario :    VFR   VFR Marginale   IFR   IFR Intensivo   IFR Molto Intensivo
Visibilità : 
Base nubi : 
>= 8 km
>= 3000ft
5 / 8 km
1000 / 3000 ft
1500m / 5 km
500 / 1000 ft
800 / 1500m
200 / 500 ft
< 800m
< 200 ft
Simboli :   Temporali  Nebbia  Neve Forte  Precipitazioni Forti  Vento > 20 kt
SIGMETs :   Varie  Temporali  Ghiacco  Turbolenza  Onda orograficha  Ceneri Vulcaniche






- Altitudine del aeroporto : 14 ft
- Codice IATA : URE


EEKE - Kuressaare

ULTIMO METAR :
  • 141250Z 16023KT 9999 OVC013 03/01 Q0993 R17/190095

METARs OBSOLETI :
  • 141150Z 17021KT 9999 OVC013 03/01 Q0994 R17/190095
  • 141050Z 16023KT 9999 BKN012 OVC015 04/02 Q0994 R17/190095

TAF TAF EEKE
Valido dal 14 a 09 ore il 14 a 15 ore UTC


140800Z 1409/1415 16018KT 9999 OVC015
TEMPO 1409/1415 17022G38KT 4000 RADZ BR BKN005 OVC010



MetMap, La meteo Aeronautica in un colpo d'occhio ! - Copyright ORBIFLY Dicembre 2007 - Disclaimer

ORBIFLY MET'MAP TEAM :

Programmazione e sviluppo : Alexandra Zaïnal
Concezione : Baudouin d'Aumeries
Aiuto per la programmazione : Marc-Olivier Méhu
Supporto tecnico e logistico : Manuel Goepfert
Aiuto per la traduzione : Arnaldo La Scala

Contatto : metmap@orbifly.com




FONTI E CREDITI :

   NOAA